EDT,Max TemperatureF,Mean TemperatureF,Min TemperatureF,Max Dew PointF,MeanDew PointF,Min DewpointF,Max Humidity, Mean Humidity, Min Humidity, Max Sea Level PressureIn, Mean Sea Level PressureIn, Min Sea Level PressureIn, Max VisibilityMiles, Mean VisibilityMiles, Min VisibilityMiles, Max Wind SpeedMPH, Mean Wind SpeedMPH, Max Gust SpeedMPH,PrecipitationIn, CloudCover, Events, WindDirDegrees
2014-3-1,62,51,39,41,36,30,89,64,46,30.33,30.25,30.20,10,10,6,10,5,13,0.00,3,,58
2014-3-2,73,56,38,46,42,36,92,66,35,30.25,30.15,30.01,10,8,2,16,5,21,0.00,0,,209
2014-3-3,69,53,36,59,44,30,89,74,58,30.16,29.97,29.85,10,10,8,26,11,36,0.01,5,Rain,268
2014-3-4,38,33,28,29,22,16,82,62,47,30.30,30.21,30.16,10,10,10,20,11,24,0.00,8,,36
2014-3-5,43,39,35,37,33,22,86,79,52,30.22,30.17,30.13,10,9,5,14,7,18,0.08,6,Rain,30
2014-3-6,40,38,35,37,32,22,92,82,52,30.22,30.06,29.89,10,5,2,20,13,28,1.27,7,Rain,41
2014-3-7,46,42,38,41,38,35,92,86,76,30.06,29.90,29.82,10,6,2,21,11,29,0.12,7,Rain,3
2014-3-8,69,51,32,45,37,31,100,82,37,30.16,30.07,30.04,10,5,0,16,6,21,0.00,0,Fog,246
2014-3-9,75,60,44,45,42,40,89,58,27,30.13,30.06,30.00,10,10,5,15,5,19,0.00,0,,263
2014-3-10,78,62,45,45,40,35,80,46,24,30.04,29.96,29.86,10,10,10,22,9,28,0.00,0,,273
2014-3-11,82,64,45,51,46,42,92,56,26,29.89,29.81,29.72,10,10,6,20,9,25,T,0,,230
2014-3-12,76,62,48,59,52,31,93,70,43,29.76,29.61,29.44,10,9,4,32,16,43,0.03,5,Rain,230
2014-3-13,55,46,35,29,19,9,76,38,16,30.25,30.04,29.78,10,10,10,16,11,26,0.00,0,,310
2014-3-14,65,47,29,38,27,12,85,52,14,30.35,30.26,30.17,10,10,9,20,6,26,0.00,0,,187
2014-3-15,74,61,47,44,40,34,80,53,23,30.16,30.09,30.01,10,10,8,17,6,23,0.00,2,,226
2014-3-16,62,57,52,59,54,45,93,89,71,30.05,29.87,29.70,10,5,1,17,6,23,0.90,7,Rain,111
2014-3-17,60,49,38,58,45,35,92,90,85,29.91,29.78,29.68,10,7,2,16,9,23,0.15,8,Rain,37
2014-3-18,45,41,36,39,36,33,92,85,76,30.14,29.99,29.85,10,9,3,18,10,25,0.01,8,,28
2014-3-19,59,51,42,48,41,39,93,85,62,30.19,30.13,30.03,10,6,2,12,4,13,0.00,7,,349
2014-3-20,74,60,45,47,39,23,93,59,16,30.08,30.02,29.95,10,10,7,18,5,23,0.00,0,,263
2014-3-21,71,57,42,38,28,23,66,36,17,30.19,30.11,30.06,10,10,10,14,6,17,0.00,0,,102
2014-3-22,78,62,46,59,49,38,90,64,36,30.10,30.03,29.95,10,10,8,15,4,19,0.00,2,,212
2014-3-23,73,61,48,60,55,40,100,79,44,30.11,29.97,29.88,10,5,0,21,9,27,0.00,6,Fog,250
2014-3-24,58,49,40,40,31,22,86,58,24,30.25,30.16,30.07,10,9,5,17,6,24,0.00,0,,65
2014-3-25,59,50,40,43,34,15,82,61,24,30.08,29.91,29.77,10,10,8,25,10,40,T,6,Rain,327
2014-3-26,55,42,29,25,14,7,69,37,15,30.33,30.24,30.10,10,10,10,15,5,20,0.00,0,,325
2014-3-27,67,49,30,44,32,23,85,57,24,30.45,30.35,30.29,10,10,7,20,6,24,0.00,0,,159
2014-3-28,72,60,47,60,54,43,90,82,57,30.28,30.16,30.06,10,9,2,17,5,22,0.17,7,Rain,149
2014-3-29,79,67,55,64,60,44,97,80,48,30.06,29.89,29.67,10,7,2,28,12,37,0.13,7,Rain,200
2014-3-30,67,57,46,40,30,19,65,40,18,30.05,29.90,29.78,10,10,10,26,13,37,0.00,0,,311
2014-3-31,78,57,36,36,27,13,85,43,9,30.15,30.10,30.06,10,10,9,15,2,20,0.00,0,,349